Baton Rouge — 2CZZ7 — position and weather

sailwx.info

Track history (hours):
 
Tides and Currents Weather Stations Pressure Air Temp Water Temp Dewpoint Dewpoint Depression Visibility Wind Speed Wind Dir Waves Ship Positions

Baton Rouge

Last reported at 2014-Sep-29 12:28 UTC. Time now 2014-Oct-24 11:31 UTC.
Position N 43°04' E 005°43'.
Warning: this ship's position is 24 days out of date.

Length 62 m; draft 3.7 m.

Type: Pleasure craft. MMSI: 235077185.

Date/timePositionNaut miles runAvg speedWind from/ knotsBaromVisibWave heightAir tempDewpointWater temp
2014-Sep-29 12:28N 43°04' E 005°43'1314.0
2014-Sep-29 11:33N 42°59' E 005°59'1414.0
2014-Sep-29 10:33N 42°57' E 006°18'1313.3
2014-Sep-29 09:33N 43°02' E 006°35'1413.7
2014-Sep-29 08:33N 43°14' E 006°45'1313.5
2014-Sep-29 07:33N 43°25' E 006°55'6 5.7
2014-Sep-29 06:33N 43°31' E 006°57'0 0.0
2014-Sep-29 05:21N 43°31' E 006°57'0 0.0
2014-Sep-29 04:21N 43°31' E 006°57'0 0.0
2014-Sep-29 03:33N 43°31' E 006°57'0 0.0
2014-Sep-29 02:32N 43°31' E 006°57'0 0.0
2014-Sep-29 01:32N 43°31' E 006°57'0 0.0
2014-Sep-29 00:33N 43°31' E 006°57'0 0.0
2014-Sep-28 23:20N 43°31' E 006°57'0 0.0
2014-Sep-28 22:32N 43°31' E 006°57'0 0.0
2014-Sep-28 21:21N 43°31' E 006°57'0 0.0
2014-Sep-28 20:20N 43°31' E 006°57'0 0.0
2014-Sep-28 19:27N 43°31' E 006°57'0 0.0
2014-Sep-28 18:14N 43°31' E 006°57'0 0.0
2014-Sep-28 17:14N 43°31' E 006°57'0 0.0
2014-Sep-28 16:20N 43°31' E 006°57'0 0.0
2014-Sep-28 15:32N 43°31' E 006°57'0 0.0
2014-Sep-28 14:14N 43°31' E 006°57'0 0.0
2014-Sep-28 13:32N 43°31' E 006°57'0 0.0
2014-Sep-28 12:20N 43°31' E 006°57'0 0.0
2014-Sep-28 11:15N 43°31' E 006°57'0 0.0
2014-Sep-28 09:32N 43°31' E 006°57'7 7.3
2014-Sep-28 08:33N 43°31' E 007°07'1414.5
2014-Sep-28 07:33N 43°40' E 007°21'5 0.9
2014-Sep-28 02:10N 43°44' E 007°25'0 0.0
2014-Sep-27 12:19N 43°44' E 007°25'  
2014-Sep-22 21:13N 43°44' E 007°25'0 0.0
2014-Sep-22 20:25N 43°44' E 007°25'0 0.0
2014-Sep-22 19:28N 43°44' E 007°25'0 0.0
2014-Sep-22 16:31N 43°44' E 007°25'0 0.0
2014-Sep-22 15:22N 43°44' E 007°25'0 0.0
2014-Sep-22 14:28N 43°44' E 007°25'0 0.0
2014-Sep-22 13:13N 43°44' E 007°25'0 0.0
2014-Sep-22 12:10N 43°44' E 007°25'0 0.0
2014-Sep-22 11:28N 43°44' E 007°25'1 0.0
2014-Sep-21 14:17N 43°44' E 007°27'4812.9
2014-Sep-21 10:34N 44°05' E 008°26'1413.7
2014-Sep-21 09:33N 44°16' E 008°39'1212.2
2014-Sep-21 08:34N 44°25' E 008°50'0 0.4
2014-Sep-21 07:31N 44°25' E 008°50'0 0.0
2014-Sep-21 06:28N 44°25' E 008°50'0 0.0
2014-Sep-21 03:22N 44°25' E 008°50'0 0.0
2014-Sep-21 02:28N 44°25' E 008°50'0 0.0
2014-Sep-21 01:31N 44°25' E 008°50'0 0.0
2014-Sep-21 00:28N 44°25' E 008°50'0 0.0
2014-Sep-20 23:28N 44°25' E 008°50'0 0.0
2014-Sep-20 22:28N 44°25' E 008°50'0 0.0
2014-Sep-20 21:25N 44°25' E 008°50'0 0.0
2014-Sep-20 20:31N 44°25' E 008°50'0 0.0
2014-Sep-20 19:31N 44°25' E 008°50'0 0.0
2014-Sep-20 18:28N 44°25' E 008°50'0 0.0
2014-Sep-20 17:22N 44°25' E 008°50'0 0.0
2014-Sep-20 16:16N 44°25' E 008°50'0 0.0
2014-Sep-20 15:28N 44°25' E 008°50'0 0.0
2014-Sep-20 14:28N 44°25' E 008°50'0 0.0
2014-Sep-20 13:31N 44°25' E 008°50'0 0.0
2014-Sep-20 12:31N 44°25' E 008°50'0 0.0
2014-Sep-20 11:28N 44°25' E 008°50'0 0.0
2014-Sep-20 10:31N 44°25' E 008°50'0 0.0
2014-Sep-20 08:22N 44°25' E 008°50'0 0.0
2014-Sep-20 06:04N 44°25' E 008°50'0 0.0
2014-Sep-20 05:22N 44°25' E 008°50'0 0.0
2014-Sep-20 04:16N 44°25' E 008°50'0 0.0
2014-Sep-20 03:33N 44°25' E 008°50'0 0.0
2014-Sep-20 02:28N 44°25' E 008°50'0 0.0
2014-Sep-20 01:28N 44°25' E 008°50'0 0.0
2014-Sep-20 00:28N 44°25' E 008°50'0 0.0
2014-Sep-19 23:34N 44°25' E 008°50'0 0.0
2014-Sep-19 20:12N 44°25' E 008°50'0 0.0
2014-Sep-19 19:34N 44°25' E 008°50'0 0.0
2014-Sep-19 18:34N 44°25' E 008°50'0 0.0
2014-Sep-19 15:19N 44°25' E 008°50'0 0.0
2014-Sep-19 14:27N 44°25' E 008°50'0 0.0
2014-Sep-19 13:15N 44°25' E 008°50'  
Track history (hours):
 
Tides and Currents Weather Stations Pressure Air Temp Water Temp Dewpoint Dewpoint Depression Visibility Wind Speed Wind Dir Waves Ship Positions

Baton Rouge

Last reported at 2014-Sep-29 12:28 UTC. Time now 2014-Oct-24 11:31 UTC.
Position N 43°04' E 005°43'.
Warning: this ship's position is 24 days out of date.

Length 62 m; draft 3.7 m.

Type: Pleasure craft. MMSI: 235077185.

Date/timePositionNaut miles runAvg speedWind from/ knotsBaromVisibWave heightAir tempDewpointWater temp
2014-Sep-29 12:28N 43°04' E 005°43'1314.0
2014-Sep-29 11:33N 42°59' E 005°59'1414.0
2014-Sep-29 10:33N 42°57' E 006°18'1313.3
2014-Sep-29 09:33N 43°02' E 006°35'1413.7
2014-Sep-29 08:33N 43°14' E 006°45'1313.5
2014-Sep-29 07:33N 43°25' E 006°55'6 5.7
2014-Sep-29 06:33N 43°31' E 006°57'0 0.0
2014-Sep-29 05:21N 43°31' E 006°57'0 0.0
2014-Sep-29 04:21N 43°31' E 006°57'0 0.0
2014-Sep-29 03:33N 43°31' E 006°57'0 0.0
2014-Sep-29 02:32N 43°31' E 006°57'0 0.0
2014-Sep-29 01:32N 43°31' E 006°57'0 0.0
2014-Sep-29 00:33N 43°31' E 006°57'0 0.0
2014-Sep-28 23:20N 43°31' E 006°57'0 0.0
2014-Sep-28 22:32N 43°31' E 006°57'0 0.0
2014-Sep-28 21:21N 43°31' E 006°57'0 0.0
2014-Sep-28 20:20N 43°31' E 006°57'0 0.0
2014-Sep-28 19:27N 43°31' E 006°57'0 0.0
2014-Sep-28 18:14N 43°31' E 006°57'0 0.0
2014-Sep-28 17:14N 43°31' E 006°57'0 0.0
2014-Sep-28 16:20N 43°31' E 006°57'0 0.0
2014-Sep-28 15:32N 43°31' E 006°57'0 0.0
2014-Sep-28 14:14N 43°31' E 006°57'0 0.0
2014-Sep-28 13:32N 43°31' E 006°57'0 0.0
2014-Sep-28 12:20N 43°31' E 006°57'0 0.0
2014-Sep-28 11:15N 43°31' E 006°57'0 0.0
2014-Sep-28 09:32N 43°31' E 006°57'7 7.3
2014-Sep-28 08:33N 43°31' E 007°07'1414.5
2014-Sep-28 07:33N 43°40' E 007°21'5 0.9
2014-Sep-28 02:10N 43°44' E 007°25'0 0.0
2014-Sep-27 12:19N 43°44' E 007°25'  
2014-Sep-22 21:13N 43°44' E 007°25'0 0.0
2014-Sep-22 20:25N 43°44' E 007°25'0 0.0
2014-Sep-22 19:28N 43°44' E 007°25'0 0.0
2014-Sep-22 16:31N 43°44' E 007°25'0 0.0
2014-Sep-22 15:22N 43°44' E 007°25'0 0.0
2014-Sep-22 14:28N 43°44' E 007°25'0 0.0
2014-Sep-22 13:13N 43°44' E 007°25'0 0.0
2014-Sep-22 12:10N 43°44' E 007°25'0 0.0
2014-Sep-22 11:28N 43°44' E 007°25'1 0.0
2014-Sep-21 14:17N 43°44' E 007°27'4812.9
2014-Sep-21 10:34N 44°05' E 008°26'1413.7
2014-Sep-21 09:33N 44°16' E 008°39'1212.2
2014-Sep-21 08:34N 44°25' E 008°50'0 0.4
2014-Sep-21 07:31N 44°25' E 008°50'0 0.0
2014-Sep-21 06:28N 44°25' E 008°50'0 0.0
2014-Sep-21 03:22N 44°25' E 008°50'0 0.0
2014-Sep-21 02:28N 44°25' E 008°50'0 0.0
2014-Sep-21 01:31N 44°25' E 008°50'0 0.0
2014-Sep-21 00:28N 44°25' E 008°50'0 0.0
2014-Sep-20 23:28N 44°25' E 008°50'0 0.0
2014-Sep-20 22:28N 44°25' E 008°50'0 0.0
2014-Sep-20 21:25N 44°25' E 008°50'0 0.0
2014-Sep-20 20:31N 44°25' E 008°50'0 0.0
2014-Sep-20 19:31N 44°25' E 008°50'0 0.0
2014-Sep-20 18:28N 44°25' E 008°50'0 0.0
2014-Sep-20 17:22N 44°25' E 008°50'0 0.0
2014-Sep-20 16:16N 44°25' E 008°50'0 0.0
2014-Sep-20 15:28N 44°25' E 008°50'0 0.0
2014-Sep-20 14:28N 44°25' E 008°50'0 0.0
2014-Sep-20 13:31N 44°25' E 008°50'0 0.0
2014-Sep-20 12:31N 44°25' E 008°50'0 0.0
2014-Sep-20 11:28N 44°25' E 008°50'0 0.0
2014-Sep-20 10:31N 44°25' E 008°50'0 0.0
2014-Sep-20 08:22N 44°25' E 008°50'0 0.0
2014-Sep-20 06:04N 44°25' E 008°50'0 0.0
2014-Sep-20 05:22N 44°25' E 008°50'0 0.0
2014-Sep-20 04:16N 44°25' E 008°50'0 0.0
2014-Sep-20 03:33N 44°25' E 008°50'0 0.0
2014-Sep-20 02:28N 44°25' E 008°50'0 0.0
2014-Sep-20 01:28N 44°25' E 008°50'0 0.0
2014-Sep-20 00:28N 44°25' E 008°50'0 0.0
2014-Sep-19 23:34N 44°25' E 008°50'0 0.0
2014-Sep-19 20:12N 44°25' E 008°50'0 0.0
2014-Sep-19 19:34N 44°25' E 008°50'0 0.0
2014-Sep-19 18:34N 44°25' E 008°50'0 0.0
2014-Sep-19 15:19N 44°25' E 008°50'0 0.0
2014-Sep-19 14:27N 44°25' E 008°50'0 0.0
2014-Sep-19 13:15N 44°25' E 008°50'  

Dump ship's entire track history